Time;durP1;ratioP1;P1;durP2;ratioP2;P2;SDS_P1;SDS_P2;PMS_P1;PMS_P2;Temp;Humidity;BMP_temperature;BMP_pressure;BME280_temperature;BME280_humidity;BME280_pressure;Samples;Min_cycle;Max_cycle;Signal;HPM_P1;HPM_P2
2023/01/09 00:00:47;;;;;;;0.85;0.38;;;;;;;19.91;38.78;99361.59;16127462;19;129418;-56
2023/01/09 00:06:09;;;;;;;1.13;0.40;;;;;;;19.87;38.79;99366.06;16127976;19;130539;-51
2023/01/09 00:11:34;;;;;;;0.87;0.30;;;;;;;19.84;38.57;99363.88;16127210;19;129424;-51
2023/01/09 00:16:55;;;;;;;1.10;0.20;;;;;;;19.79;38.70;99362.00;16128522;19;129383;-56
2023/01/09 00:22:17;;;;;;;1.40;0.20;;;;;;;19.77;38.49;99361.44;16126577;19;129346;-53
2023/01/09 00:27:39;;;;;;;1.05;0.30;;;;;;;19.74;38.65;99364.81;16124541;19;129650;-52
2023/01/09 00:33:01;;;;;;;0.57;0.20;;;;;;;19.72;38.75;99371.75;16123415;19;129796;-50
2023/01/09 00:38:23;;;;;;;0.70;0.20;;;;;;;19.68;38.54;99383.47;16121907;19;129687;-55
2023/01/09 00:43:50;;;;;;;0.10;0.10;;;;;;;19.66;38.73;99385.69;16124156;19;130232;-51
2023/01/09 00:49:14;;;;;;;0.45;0.10;;;;;;;19.63;38.80;99380.72;16118996;19;129380;-48
2023/01/09 00:54:36;;;;;;;1.38;0.30;;;;;;;19.60;38.91;99380.50;16121845;19;129634;-52
2023/01/09 00:59:59;;;;;;;1.13;0.20;;;;;;;19.57;38.55;99369.97;16121241;19;131869;-52
2023/01/09 01:11:08;;;;;;;2.83;0.22;;;;;;;19.53;38.78;99369.72;16137092;19;129573;-49
2023/01/09 01:16:29;;;;;;;0.10;0.10;;;;;;;19.51;38.77;99385.81;16133880;19;129546;-52
2023/01/09 01:21:51;;;;;;;0.28;0.10;;;;;;;19.49;38.73;99379.72;16135837;19;129508;-52
2023/01/09 01:27:13;;;;;;;1.30;0.28;;;;;;;19.47;38.66;99374.50;16135701;19;129547;-53
2023/01/09 01:32:35;;;;;;;0.25;0.10;;;;;;;19.47;38.55;99384.75;16134735;19;129792;-52
2023/01/09 01:37:57;;;;;;;1.30;0.20;;;;;;;19.44;38.63;99388.94;16133652;19;129576;-52
2023/01/09 01:43:19;;;;;;;0.28;0.10;;;;;;;19.41;38.61;99381.19;16134733;19;129363;-53
2023/01/09 01:48:41;;;;;;;0.75;0.20;;;;;;;19.41;38.76;99388.69;16134912;19;129868;-48
2023/01/09 01:54:09;;;;;;;0.60;0.10;;;;;;;19.37;38.96;99380.94;16133471;19;129436;-48
2023/01/09 01:59:39;;;;;;;0.20;0.10;;;;;;;19.36;39.02;99393.16;16129725;19;129498;-54
2023/01/09 02:05:02;;;;;;;0.38;0.20;;;;;;;19.34;39.04;99389.81;16133225;19;129663;-52
2023/01/09 02:10:24;;;;;;;0.05;0.00;;;;;;;19.32;39.03;99378.19;16132189;19;129971;-49
2023/01/09 02:16:01;;;;;;;0.30;0.10;;;;;;;19.31;39.03;99375.72;16133312;19;129617;-50
2023/01/09 02:21:44;;;;;;;0.90;0.20;;;;;;;19.29;38.76;99386.25;16133433;19;129095;-52
2023/01/09 02:27:17;;;;;;;0.10;0.10;;;;;;;19.27;38.96;99383.78;16132670;19;129120;-55
2023/01/09 02:32:58;;;;;;;0.38;0.20;;;;;;;19.24;38.99;99370.50;16131377;19;130742;-50
2023/01/09 02:39:08;;;;;;;0.60;0.20;;;;;;;19.22;38.73;99381.03;16130269;19;130842;-52
2023/01/09 02:44:33;;;;;;;0.05;0.00;;;;;;;19.20;38.83;99383.25;16118952;19;131638;-52
2023/01/09 02:49:59;;;;;;;0.23;0.10;;;;;;;19.18;38.76;99374.41;16119515;19;130480;-50
2023/01/09 02:55:26;;;;;;;0.65;0.10;;;;;;;19.17;38.92;99378.28;16121437;19;129772;-52
2023/01/09 03:00:59;;;;;;;0.75;0.20;;;;;;;19.15;38.68;99370.25;16120889;19;130288;-51
2023/01/09 03:06:27;;;;;;;1.95;0.13;;;;;;;19.13;38.69;99364.19;16121804;19;130922;-53
2023/01/09 03:11:54;;;;;;;0.45;0.10;;;;;;;19.11;38.42;99362.78;16119566;19;130744;-50
2023/01/09 03:17:27;;;;;;;0.75;0.30;;;;;;;19.09;38.62;99360.31;16118083;19;130125;-51
2023/01/09 03:22:56;;;;;;;0.32;0.20;;;;;;;19.08;38.46;99353.94;16128437;19;129889;-52
2023/01/09 03:28:26;;;;;;;1.35;0.15;;;;;;;19.06;38.58;99361.72;16125696;19;133112;-54
2023/01/09 03:33:48;;;;;;;0.10;0.10;;;;;;;19.04;38.85;99358.41;16125267;19;129881;-54
2023/01/09 03:39:10;;;;;;;0.73;0.20;;;;;;;19.02;38.71;99357.88;16125230;19;129702;-54
2023/01/09 03:44:32;;;;;;;0.98;0.10;;;;;;;19.01;38.84;99364.53;16123917;19;130843;-54
2023/01/09 03:49:54;;;;;;;0.43;0.22;;;;;;;19.01;38.33;99367.28;16124580;19;129715;-52
2023/01/09 03:55:15;;;;;;;0.68;0.20;;;;;;;18.99;38.75;99371.47;16125066;19;130717;-54
2023/01/09 04:00:39;;;;;;;0.63;0.20;;;;;;;18.97;38.43;99380.06;16122807;19;129637;-54
2023/01/09 04:06:00;;;;;;;0.55;0.20;;;;;;;18.97;38.40;99370.94;16121786;19;130292;-50
2023/01/09 04:11:22;;;;;;;0.55;0.20;;;;;;;18.95;38.25;99365.69;16121707;19;129625;-54
2023/01/09 04:16:44;;;;;;;1.20;0.30;;;;;;;18.93;38.28;99356.81;16123414;19;130487;-54
2023/01/09 04:22:05;;;;;;;0.93;0.22;;;;;;;;;;16122784;19;129313;-49
2023/01/09 04:27:27;;;;;;;0.63;0.20;;;;;;;18.92;38.59;99363.47;16123806;19;130080;-50
2023/01/09 04:32:50;;;;;;;2.42;0.30;;;;;;;18.90;38.17;99360.16;16122662;19;129677;-53
2023/01/09 04:38:12;;;;;;;0.30;0.17;;;;;;;18.88;38.48;99348.53;16123460;19;129836;-52
2023/01/09 04:43:34;;;;;;;0.75;0.13;;;;;;;18.86;38.45;99348.00;16122013;19;130144;-53
2023/01/09 04:48:56;;;;;;;0.20;0.10;;;;;;;18.85;38.43;99346.31;16123059;19;129081;-50
2023/01/09 04:54:18;;;;;;;0.95;0.40;;;;;;;18.84;38.47;99347.44;16119885;19;129025;-54
2023/01/09 04:59:40;;;;;;;0.93;0.20;;;;;;;18.84;38.30;99336.34;16123579;19;129684;-52
2023/01/09 05:05:02;;;;;;;2.97;0.40;;;;;;;18.82;38.23;99344.97;16123508;19;129611;-55
2023/01/09 05:10:24;;;;;;;0.50;0.22;;;;;;;18.80;38.35;99346.38;16123434;19;130163;-53
2023/01/09 05:15:45;;;;;;;3.10;0.30;;;;;;;18.80;38.05;99346.38;16123206;19;129483;-54
2023/01/09 05:21:07;;;;;;;1.10;0.40;;;;;;;18.77;37.92;99356.91;16122241;19;129352;-52
2023/01/09 05:26:29;;;;;;;1.33;0.30;;;;;;;18.76;37.98;99357.22;16119230;19;130361;-51
2023/01/09 05:31:51;;;;;;;1.08;0.20;;;;;;;18.75;37.91;99344.47;16120225;19;131582;-50
2023/01/09 05:37:13;;;;;;;3.13;0.47;;;;;;;18.75;38.15;99355.56;16119360;19;131905;-55
2023/01/09 05:42:35;;;;;;;1.13;0.40;;;;;;;18.72;37.89;99356.94;16117317;19;129438;-52
2023/01/09 05:47:57;;;;;;;0.45;0.30;;;;;;;18.70;37.58;99356.41;16123183;19;129498;-52
2023/01/09 05:53:19;;;;;;;3.60;0.60;;;;;;;18.69;37.96;99374.13;16126793;19;129848;-48
2023/01/09 05:58:41;;;;;;;2.22;0.68;;;;;;;18.68;37.50;99378.03;16134896;19;128941;-55
2023/01/09 06:04:03;;;;;;;1.92;0.60;;;;;;;18.67;37.40;99381.91;16132449;19;130332;-52
2023/01/09 06:09:24;;;;;;;2.60;0.38;;;;;;;18.67;37.46;99381.06;16132254;19;129501;-49
2023/01/09 06:14:46;;;;;;;1.58;0.50;;;;;;;18.66;37.74;99374.69;16132758;19;129911;-51
2023/01/09 06:20:09;;;;;;;1.38;0.50;;;;;;;18.66;37.39;99398.78;16134116;19;129022;-50
2023/01/09 06:25:31;;;;;;;1.92;0.50;;;;;;;18.65;37.23;99389.66;16127593;19;129796;-52
2023/01/09 06:30:52;;;;;;;4.90;0.70;;;;;;;18.66;36.98;99388.56;16126585;19;129460;-53
2023/01/09 06:36:14;;;;;;;6.40;0.95;;;;;;;18.67;37.01;99392.97;16131486;19;130176;-55
2023/01/09 06:41:36;;;;;;;5.80;1.25;;;;;;;18.71;37.02;99405.13;16129339;19;129474;-51
2023/01/09 06:46:58;;;;;;;4.75;0.80;;;;;;;18.76;36.93;99415.38;16129794;19;134528;-52
2023/01/09 06:52:20;;;;;;;5.43;0.95;;;;;;;18.76;36.93;99423.69;16127358;19;129657;-53
2023/01/09 06:57:42;;;;;;;8.40;1.00;;;;;;;18.76;37.05;99432.81;16127474;19;130692;-54
2023/01/09 07:03:04;;;;;;;6.95;1.05;;;;;;;18.75;36.65;99444.19;16127514;19;129350;-53
2023/01/09 07:08:26;;;;;;;5.80;1.20;;;;;;;18.72;36.69;99453.88;16132065;19;129461;-49
2023/01/09 07:13:48;;;;;;;5.90;0.98;;;;;;;18.71;36.89;99459.72;16133610;19;130418;-50
2023/01/09 07:19:10;;;;;;;4.82;1.08;;;;;;;18.71;37.03;99471.63;16129351;19;128958;-51
2023/01/09 07:24:32;;;;;;;8.55;1.33;;;;;;;18.69;37.01;99479.41;16128607;19;129029;-48
2023/01/09 07:29:54;;;;;;;5.45;0.77;;;;;;;18.69;36.81;99478.56;16127762;19;129249;-49
2023/01/09 07:35:15;;;;;;;3.85;0.68;;;;;;;18.66;36.56;99490.19;16126114;19;130175;-49
2023/01/09 07:40:38;;;;;;;6.13;1.30;;;;;;;18.62;37.03;99492.69;16125977;19;129059;-50
2023/01/09 07:45:59;;;;;;;3.60;0.65;;;;;;;18.58;37.03;99497.16;16125020;19;129881;-51
2023/01/09 07:51:21;;;;;;;5.03;0.88;;;;;;;18.57;36.87;99503.81;16126189;19;129447;-50
2023/01/09 07:56:43;;;;;;;4.82;0.90;;;;;;;18.57;36.82;99517.66;16127758;19;131441;-47
2023/01/09 08:02:05;;;;;;;4.18;1.00;;;;;;;18.55;36.76;99528.19;16124091;19;130151;-49
2023/01/09 08:07:28;;;;;;;9.30;0.70;;;;;;;18.54;37.11;99543.97;16123973;19;129464;-50
2023/01/09 08:12:50;;;;;;;2.88;0.70;;;;;;;18.54;36.92;99543.16;16125731;19;129960;-50
2023/01/09 08:18:12;;;;;;;2.50;0.90;;;;;;;18.53;36.95;99558.09;16123095;19;129857;-53
2023/01/09 08:23:33;;;;;;;3.17;0.60;;;;;;;18.52;37.20;99561.97;16124698;19;129844;-52
2023/01/09 08:28:55;;;;;;;3.55;0.65;;;;;;;18.51;36.90;99572.22;16123988;19;129477;-51
2023/01/09 08:34:17;;;;;;;1.73;0.70;;;;;;;18.51;36.73;99582.47;16120952;19;129365;-52
2023/01/09 08:39:39;;;;;;;3.13;0.50;;;;;;;18.50;37.05;99578.03;16124871;19;129416;-47
2023/01/09 08:50:40;;;;;;;3.42;0.60;;;;;;;18.49;36.81;99606.81;16124080;19;130724;-52
2023/01/09 08:56:03;;;;;;;3.78;0.40;;;;;;;18.49;37.18;99606.81;16123070;19;129675;-50
2023/01/09 09:01:24;;;;;;;2.53;0.45;;;;;;;18.50;36.89;99616.81;16119643;19;130474;-47
2023/01/09 09:06:46;;;;;;;1.92;0.50;;;;;;;18.49;37.10;99629.00;16117098;19;130330;-50
2023/01/09 09:12:08;;;;;;;3.45;0.90;;;;;;;18.48;36.76;99639.25;16117748;19;131872;-51
2023/01/09 09:17:31;;;;;;;2.65;1.05;;;;;;;18.47;37.03;99659.72;16115079;19;129683;-49
2023/01/09 09:22:53;;;;;;;3.15;0.65;;;;;;;18.46;37.12;99671.91;16120515;19;130838;-52
2023/01/09 09:28:15;;;;;;;1.85;0.43;;;;;;;18.44;37.19;99680.50;16127099;19;129682;-51
2023/01/09 09:33:37;;;;;;;3.75;0.90;;;;;;;18.45;37.18;99698.78;16134365;19;129672;-51
2023/01/09 09:39:01;;;;;;;1.77;0.40;;;;;;;18.45;36.78;99704.34;16136380;19;129503;-47
2023/01/09 09:44:42;;;;;;;4.90;0.52;;;;;;;18.46;36.75;99708.72;16132429;19;129343;-52
2023/01/09 09:50:50;;;;;;;3.58;0.57;;;;;;;18.48;37.08;99727.03;16134484;19;129633;-52
2023/01/09 09:56:16;;;;;;;1.15;0.40;;;;;;;18.46;37.02;99744.75;16133708;19;129461;-55
2023/01/09 10:02:03;;;;;;;2.65;0.52;;;;;;;18.48;36.62;99757.47;16133171;19;129229;-52
2023/01/09 10:07:33;;;;;;;1.23;0.60;;;;;;;18.48;36.81;99774.09;16132391;19;129666;-50
2023/01/09 10:12:57;;;;;;;9.20;0.57;;;;;;;18.46;37.02;99775.19;16129420;19;130731;-49
2023/01/09 10:19:02;;;;;;;5.63;0.68;;;;;;;18.46;36.91;99788.22;16129558;19;129513;-54
2023/01/09 10:24:47;;;;;;;3.15;0.50;;;;;;;18.45;36.63;99797.63;16132008;19;130076;-49
2023/01/09 10:30:44;;;;;;;5.28;0.50;;;;;;;18.44;36.60;99799.59;16128589;19;129381;-51
2023/01/09 10:36:24;;;;;;;3.47;0.57;;;;;;;18.45;36.96;99806.78;16129533;19;129654;-49
2023/01/09 10:42:04;;;;;;;2.55;0.52;;;;;;;18.46;37.08;99815.91;16127659;19;129470;-54
2023/01/09 10:47:38;;;;;;;6.15;0.63;;;;;;;18.44;37.02;99815.34;16129512;19;130247;-48
2023/01/09 10:53:11;;;;;;;3.70;0.40;;;;;;;18.44;36.93;99829.19;16131495;19;129826;-47
2023/01/09 10:58:33;;;;;;;1.80;0.40;;;;;;;18.40;36.89;99837.22;16129034;19;129953;-48
2023/01/09 11:03:57;;;;;;;2.22;0.55;;;;;;;18.40;36.73;99837.22;16128640;19;129906;-48
2023/01/09 11:09:19;;;;;;;3.10;0.83;;;;;;;18.40;36.87;99840.00;16131418;19;129790;-49
2023/01/09 11:14:41;;;;;;;2.08;0.47;;;;;;;18.40;36.80;99853.03;16130287;19;129664;-49
2023/01/09 11:20:15;;;;;;;2.55;0.40;;;;;;;18.40;36.74;99853.03;16129650;19;130100;-48
2023/01/09 11:25:51;;;;;;;1.48;0.50;;;;;;;18.39;37.12;99857.72;16128725;19;129564;-49
2023/01/09 11:31:13;;;;;;;0.88;0.35;;;;;;;18.39;37.13;99863.25;16129823;19;129362;-52
2023/01/09 11:36:35;;;;;;;0.95;0.30;;;;;;;18.38;36.72;99869.84;16126994;19;129082;-50
2023/01/09 11:42:02;;;;;;;1.88;0.57;;;;;;;18.41;36.79;99872.13;16124948;19;129510;-49
2023/01/09 11:47:38;;;;;;;1.63;0.43;;;;;;;18.42;36.78;99876.56;16125645;19;130172;-46
2023/01/09 11:53:13;;;;;;;1.73;0.68;;;;;;;18.44;37.08;99879.06;16129485;19;129651;-49
2023/01/09 11:58:35;;;;;;;4.68;0.50;;;;;;;18.41;36.75;99888.75;16126310;19;129870;-48
2023/01/09 12:04:16;;;;;;;0.70;0.20;;;;;;;18.43;37.10;99897.63;16128488;19;129370;-49
2023/01/09 12:10:08;;;;;;;4.80;0.52;;;;;;;18.42;37.18;99890.41;16129627;19;129832;-47
2023/01/09 12:15:56;;;;;;;1.38;0.38;;;;;;;18.42;37.01;99895.09;16126887;19;130813;-50
2023/01/09 12:21:40;;;;;;;2.30;0.75;;;;;;;18.40;36.97;99895.38;16127067;19;136055;-47
2023/01/09 12:27:43;;;;;;;1.80;0.50;;;;;;;18.38;37.27;99897.56;16124873;19;129981;-47
2023/01/09 12:33:11;;;;;;;4.78;0.50;;;;;;;18.37;36.82;99909.72;16123490;19;129360;-46
2023/01/09 12:38:36;;;;;;;1.27;0.40;;;;;;;18.37;37.20;99906.97;16124828;19;129339;-47
2023/01/09 12:44:23;;;;;;;1.15;0.30;;;;;;;18.39;37.32;99913.09;16124633;19;129412;-57
2023/01/09 12:50:08;;;;;;;4.25;0.35;;;;;;;18.38;37.01;99911.41;16124177;19;130656;-55
2023/01/09 12:55:36;;;;;;;3.20;0.28;;;;;;;18.36;37.32;99921.91;16120201;19;131497;-55
2023/01/09 13:01:01;;;;;;;0.80;0.30;;;;;;;18.35;37.19;99919.41;16119738;19;129497;-57
2023/01/09 13:06:24;;;;;;;5.10;0.30;;;;;;;18.33;37.34;99928.00;16123617;19;129164;-55
2023/01/09 13:11:56;;;;;;;0.55;0.20;;;;;;;18.34;37.22;99917.75;16120981;19;130058;-57
2023/01/09 13:17:26;;;;;;;2.28;0.40;;;;;;;18.34;36.93;99931.59;16121197;19;135042;-51
2023/01/09 13:22:51;;;;;;;2.95;0.40;;;;;;;18.31;37.38;99939.31;16121203;19;130118;-47
2023/01/09 13:28:21;;;;;;;1.75;0.50;;;;;;;18.32;37.01;99940.19;16116148;19;129555;-47
2023/01/09 13:33:53;;;;;;;2.63;0.30;;;;;;;18.31;37.20;99950.41;16120122;19;129640;-50
2023/01/09 13:39:21;;;;;;;1.60;0.32;;;;;;;18.28;37.52;99962.00;16118533;19;131180;-48
2023/01/09 13:44:46;;;;;;;1.42;0.40;;;;;;;18.27;37.15;99965.06;16117322;19;129434;-48
2023/01/09 13:50:10;;;;;;;1.98;0.40;;;;;;;18.28;37.50;99972.25;16116858;19;130045;-53
2023/01/09 13:55:34;;;;;;;1.70;0.68;;;;;;;18.27;37.36;99981.66;16115943;19;130628;-48
2023/01/09 14:01:03;;;;;;;0.53;0.37;;;;;;;18.28;37.60;99984.16;16119218;19;129519;-49
2023/01/09 14:06:26;;;;;;;1.00;0.32;;;;;;;18.27;37.58;99998.28;16117920;19;130129;-53
2023/01/09 14:12:02;;;;;;;1.13;0.30;;;;;;;18.28;37.15;100014.59;16116746;19;129557;-47
2023/01/09 14:17:36;;;;;;;4.03;0.20;;;;;;;18.27;37.37;100020.44;16130162;19;134144;-48
2023/01/09 14:22:59;;;;;;;1.50;0.50;;;;;;;18.26;37.51;100036.22;16129592;19;130625;-50
2023/01/09 14:28:41;;;;;;;0.73;0.40;;;;;;;18.25;37.58;100045.63;16132256;19;130647;-48
2023/01/09 14:34:35;;;;;;;3.03;0.47;;;;;;;18.26;37.29;100054.75;16132078;19;129489;-48
2023/01/09 14:39:57;;;;;;;3.28;0.70;;;;;;;18.23;37.55;100063.56;16130979;19;129513;-51
2023/01/09 14:45:26;;;;;;;4.30;0.30;;;;;;;18.24;37.34;100090.16;16131032;19;131855;-47
2023/01/09 14:50:54;;;;;;;1.92;0.50;;;;;;;18.22;37.63;100117.28;16128767;19;129551;-50
2023/01/09 14:56:28;;;;;;;1.52;0.60;;;;;;;18.22;37.71;100133.88;16129255;19;129248;-52
2023/01/09 15:01:54;;;;;;;2.65;0.60;;;;;;;18.21;37.75;100143.31;16130199;19;129655;-50
2023/01/09 15:07:21;;;;;;;4.20;0.50;;;;;;;18.20;37.41;100153.53;16129665;19;129609;-50
2023/01/09 15:12:50;;;;;;;4.53;0.77;;;;;;;18.19;37.83;100154.63;16129693;19;133557;-49
2023/01/09 15:18:28;;;;;;;1.30;0.35;;;;;;;18.18;37.84;100171.53;16128587;19;129581;-50
2023/01/09 15:23:49;;;;;;;2.28;0.60;;;;;;;18.18;37.69;100174.28;16126125;19;129627;-47
2023/01/09 15:29:16;;;;;;;3.15;0.70;;;;;;;18.17;37.52;100186.44;16127614;19;130328;-46
2023/01/09 15:34:38;;;;;;;1.52;0.55;;;;;;;18.16;37.42;100196.69;16126969;19;129887;-47
2023/01/09 15:40:03;;;;;;;3.20;0.57;;;;;;;18.16;37.70;100224.34;16128934;19;130435;-49
2023/01/09 15:45:43;;;;;;;2.53;0.70;;;;;;;18.17;37.52;100225.22;16126418;19;130964;-49
2023/01/09 15:51:05;;;;;;;2.15;0.45;;;;;;;18.12;37.63;100245.38;16125810;19;129702;-48
2023/01/09 15:56:32;;;;;;;1.48;0.52;;;;;;;18.11;37.96;100263.06;16124011;19;129666;-50
2023/01/09 16:07:46;;;;;;;1.40;0.50;;;;;;;18.10;38.02;100278.00;16123142;19;130047;-47
2023/01/09 16:13:13;;;;;;;0.80;0.30;;;;;;;18.09;37.69;100288.22;16125897;19;129658;-52
2023/01/09 16:18:37;;;;;;;1.65;0.47;;;;;;;18.08;37.60;100288.50;16125779;19;130214;-48
2023/01/09 16:24:06;;;;;;;1.98;0.50;;;;;;;18.06;37.67;100299.84;16125341;19;129563;-50
2023/01/09 16:29:36;;;;;;;2.30;0.60;;;;;;;18.07;38.03;100315.34;16118296;19;131907;-47
2023/01/09 16:35:01;;;;;;;10.07;0.70;;;;;;;18.05;37.87;100327.75;16118144;19;129781;-48
2023/01/09 16:40:28;;;;;;;1.38;0.55;;;;;;;18.05;37.66;100344.38;16120125;19;129678;-49
2023/01/09 16:45:50;;;;;;;4.32;0.80;;;;;;;18.04;38.16;100354.59;16116358;19;130552;-47
2023/01/09 16:51:18;;;;;;;6.80;1.08;;;;;;;18.05;37.93;100360.97;16118692;19;129919;-46
2023/01/09 16:56:41;;;;;;;3.83;0.75;;;;;;;18.04;37.84;100360.16;16118563;19;129626;-49
2023/01/09 17:02:16;;;;;;;8.10;0.80;;;;;;;18.05;37.92;100370.13;16121893;19;134347;-47
2023/01/09 17:07:38;;;;;;;6.30;0.65;;;;;;;18.03;38.21;100390.88;16118434;19;130298;-47
2023/01/09 17:13:00;;;;;;;7.25;1.10;;;;;;;18.00;38.19;100404.13;16117981;19;130566;-51
2023/01/09 17:18:24;;;;;;;6.50;1.20;;;;;;;18.00;37.74;100408.78;16115708;19;129398;-49
2023/01/09 17:23:46;;;;;;;8.07;2.10;;;;;;;17.99;38.01;100429.25;16120371;19;129408;-49
2023/01/09 17:29:08;;;;;;;17.58;3.55;;;;;;;17.99;38.34;100441.19;16119971;19;129396;-46
2023/01/09 17:34:30;;;;;;;17.70;4.90;;;;;;;17.99;38.20;100451.41;16119024;19;130518;-48
2023/01/09 17:39:52;;;;;;;19.10;5.47;;;;;;;18.00;38.41;100464.16;16119425;19;129932;-49
2023/01/09 17:45:14;;;;;;;23.73;7.38;;;;;;;18.01;38.24;100468.59;16116808;19;130346;-48
2023/01/09 17:50:36;;;;;;;24.58;7.00;;;;;;;18.00;38.39;100469.69;16126889;19;130097;-50
2023/01/09 17:55:59;;;;;;;21.80;7.00;;;;;;;18.00;38.60;100481.63;16134819;19;130508;-50
2023/01/09 18:01:20;;;;;;;26.25;7.43;;;;;;;18.00;38.29;100509.28;16133702;19;130872;-51
2023/01/09 18:06:43;;;;;;;30.52;8.57;;;;;;;18.01;38.61;100521.19;16132644;19;129664;-51
2023/01/09 18:12:04;;;;;;;23.40;7.65;;;;;;;18.00;38.41;100523.13;16130722;19;129310;-49
2023/01/09 18:17:26;;;;;;;26.17;7.50;;;;;;;18.00;38.44;100544.41;16133268;19;129605;-48
2023/01/09 18:22:48;;;;;;;19.88;6.43;;;;;;;18.00;38.46;100558.25;16131697;19;129271;-50
2023/01/09 18:28:13;;;;;;;25.15;7.70;;;;;;;17.99;38.44;100567.66;16132633;19;129137;-49
2023/01/09 18:33:36;;;;;;;24.55;7.80;;;;;;;18.01;38.90;100584.84;16128962;19;129362;-54
2023/01/09 18:38:59;;;;;;;27.38;7.75;;;;;;;18.29;39.03;100599.72;16130916;19;129656;-52
2023/01/09 18:44:22;;;;;;;21.25;6.78;;;;;;;18.82;38.19;100614.13;16128819;19;129620;-48
2023/01/09 18:49:44;;;;;;;17.30;6.95;;;;;;;19.40;37.84;100624.88;16128192;19;129666;-55
2023/01/09 18:55:06;;;;;;;23.35;6.72;;;;;;;19.93;37.68;100635.44;16129758;19;129492;-49
2023/01/09 19:00:27;;;;;;;21.48;6.72;;;;;;;20.38;36.71;100661.16;16125970;19;130773;-55
2023/01/09 19:05:49;;;;;;;18.10;6.28;;;;;;;20.67;36.30;100664.44;16129381;19;129722;-55
2023/01/09 19:11:11;;;;;;;22.77;7.57;;;;;;;20.78;36.12;100676.53;16124621;19;130089;-52
2023/01/09 19:16:33;;;;;;;20.20;6.75;;;;;;;20.77;36.54;100683.19;16128347;19;130442;-50
2023/01/09 19:21:55;;;;;;;18.60;6.85;;;;;;;20.69;36.47;100694.75;16128986;19;129516;-53
2023/01/09 19:27:17;;;;;;;25.00;6.43;;;;;;;20.55;36.64;100706.34;16127272;19;130984;-55
2023/01/09 19:32:39;;;;;;;20.45;6.30;;;;;;;20.51;36.54;100732.13;16128716;19;130294;-52
2023/01/09 19:38:01;;;;;;;32.40;6.72;;;;;;;20.61;36.55;100737.78;16127029;19;130385;-51
2023/01/09 19:43:26;;;;;;;19.42;5.80;;;;;;;20.78;37.04;100748.81;16126977;19;129630;-49
2023/01/09 19:48:48;;;;;;;24.10;5.97;;;;;;;20.90;36.77;100760.59;16124401;19;129365;-47
2023/01/09 19:54:10;;;;;;;22.60;5.80;;;;;;;20.95;36.80;100781.19;16121356;19;130875;-52
2023/01/09 19:59:32;;;;;;;17.33;5.00;;;;;;;20.92;37.19;100787.28;16123843;19;129939;-54
2023/01/09 20:04:56;;;;;;;52.55;7.78;;;;;;;20.80;37.15;100804.97;16124052;19;129531;-50
2023/01/09 20:10:18;;;;;;;21.60;5.10;;;;;;;20.68;37.21;100810.66;16124660;19;129712;-50
2023/01/09 20:15:40;;;;;;;26.73;6.05;;;;;;;20.59;37.53;100824.19;16128452;19;129629;-47
2023/01/09 20:21:02;;;;;;;24.60;5.38;;;;;;;20.50;37.96;100841.59;16125471;19;130717;-54
2023/01/09 20:26:25;;;;;;;22.73;4.90;;;;;;;20.38;38.43;100850.09;16124827;19;130264;-53
2023/01/09 20:31:46;;;;;;;24.40;5.55;;;;;;;20.35;38.16;100847.84;16125670;19;129348;-48
2023/01/09 20:37:09;;;;;;;23.38;5.32;;;;;;;20.51;37.99;100844.13;16127134;19;129642;-52
2023/01/09 20:42:30;;;;;;;26.52;4.55;;;;;;;20.84;37.78;100858.13;16120559;19;130411;-53
2023/01/09 20:47:53;;;;;;;13.80;4.40;;;;;;;21.20;37.42;100866.78;16120623;19;130355;-53
2023/01/09 20:53:14;;;;;;;15.90;4.40;;;;;;;21.51;37.51;100876.25;16122837;19;130404;-50
2023/01/09 20:58:36;;;;;;;16.15;4.78;;;;;;;21.77;37.10;100884.78;16119885;19;129466;-49
2023/01/09 21:03:58;;;;;;;12.88;3.92;;;;;;;21.98;36.56;100884.88;16123513;19;129857;-48
2023/01/09 21:09:20;;;;;;;18.05;3.83;;;;;;;22.11;36.39;100891.91;16118667;19;129976;-52
2023/01/09 21:14:42;;;;;;;14.20;4.35;;;;;;;22.08;36.68;100893.28;16125595;19;129636;-47
2023/01/09 21:20:07;;;;;;;19.55;4.22;;;;;;;21.95;36.71;100916.06;16118551;19;131274;-49
2023/01/09 21:25:29;;;;;;;12.45;3.83;;;;;;;21.80;36.88;100930.72;16129321;19;129407;-47
2023/01/09 21:30:52;;;;;;;16.85;3.90;;;;;;;21.66;37.25;100935.94;16136963;19;130637;-50
2023/01/09 21:36:14;;;;;;;15.75;4.05;;;;;;;21.49;37.58;100934.13;16131982;19;129274;-49
2023/01/09 21:47:16;;;;;;;15.27;3.33;;;;;;;21.19;37.91;100966.09;16130471;19;129687;-48
2023/01/09 21:52:38;;;;;;;10.25;3.10;;;;;;;21.06;37.88;100966.50;16132947;19;136456;-52
2023/01/09 21:58:00;;;;;;;12.82;3.00;;;;;;;20.95;38.60;100971.13;16133515;19;129403;-55
2023/01/09 22:03:22;;;;;;;27.10;3.47;;;;;;;20.85;38.38;100974.63;16132828;19;129719;-51
2023/01/09 22:08:44;;;;;;;16.10;3.05;;;;;;;20.73;38.29;100979.47;16136436;19;129771;-46
2023/01/09 22:14:06;;;;;;;17.90;3.33;;;;;;;20.58;38.39;101000.41;16138208;19;130530;-47
2023/01/09 22:19:27;;;;;;;15.98;3.95;;;;;;;20.48;38.71;101016.13;16135064;19;130319;-48
2023/01/09 22:24:50;;;;;;;9.35;3.38;;;;;;;20.35;38.44;101034.84;16137016;19;129756;-47
2023/01/09 22:30:12;;;;;;;10.43;3.50;;;;;;;20.24;38.98;101046.91;16134839;19;129816;-49
2023/01/09 22:35:34;;;;;;;12.93;3.22;;;;;;;20.15;39.02;101065.94;16135026;19;129375;-45
2023/01/09 22:40:55;;;;;;;7.93;2.63;;;;;;;20.05;39.07;101080.47;16132777;19;129452;-46
2023/01/09 22:46:17;;;;;;;7.40;2.55;;;;;;;19.97;38.97;101090.03;16130070;19;130127;-44
2023/01/09 22:51:39;;;;;;;6.85;2.40;;;;;;;19.89;39.00;101107.13;16133639;19;131394;-46
2023/01/09 22:57:01;;;;;;;9.57;2.67;;;;;;;19.81;38.88;101121.41;16180361;19;129267;-49
2023/01/09 23:02:23;;;;;;;12.88;2.20;;;;;;;19.75;39.26;101137.13;16206904;19;127792;-46
2023/01/09 23:07:45;;;;;;;8.75;2.50;;;;;;;19.68;38.91;101140.06;16209730;19;129683;-50
2023/01/09 23:13:06;;;;;;;7.70;2.50;;;;;;;19.63;38.93;101156.59;16210188;19;128573;-48
2023/01/09 23:18:29;;;;;;;9.45;2.30;;;;;;;19.57;39.45;101157.59;16211778;19;129828;-48
2023/01/09 23:23:50;;;;;;;6.03;1.58;;;;;;;19.51;39.34;101170.50;16207490;19;129164;-48
2023/01/09 23:29:13;;;;;;;4.85;1.73;;;;;;;19.47;39.23;101179.56;16207364;19;129529;-46
2023/01/09 23:34:34;;;;;;;4.65;1.70;;;;;;;19.44;39.46;101196.75;16207111;19;129286;-49
2023/01/09 23:39:56;;;;;;;7.50;2.00;;;;;;;19.42;39.27;101207.25;16202611;19;128512;-48
2023/01/09 23:45:18;;;;;;;4.78;1.88;;;;;;;19.36;39.07;101217.38;16205901;19;128630;-46
2023/01/09 23:50:47;;;;;;;5.55;1.55;;;;;;;19.33;39.05;101234.50;16207442;19;128770;-52
2023/01/09 23:56:09;;;;;;;3.53;1.52;;;;;;;19.27;39.35;101241.88;16201073;19;130203;-46
